Time;durP1;ratioP1;P1;durP2;ratioP2;P2;SDS_P1;SDS_P2;PMS_P1;PMS_P2;Temp;Humidity;BMP_temperature;BMP_pressure;BME280_temperature;BME280_humidity;BME280_pressure;Samples;Min_cycle;Max_cycle;Signal;HPM_P1;HPM_P2
2023/03/01 00:00:18;;;;;;;0.50;0.50;;;-1.50;99.90;;;;;;5059290;28;20202;-78
2023/03/01 00:02:45;;;;;;;0.50;0.40;;;-1.60;99.90;;;;;;5059761;28;20222;-78
2023/03/01 00:05:12;;;;;;;0.50;0.50;;;-1.60;99.90;;;;;;5059386;28;20258;-78
2023/03/01 00:07:41;;;;;;;0.50;0.50;;;-1.60;99.90;;;;;;5059253;28;20204;-78
2023/03/01 00:10:08;;;;;;;0.50;0.40;;;-1.60;99.90;;;;;;5059864;28;20197;-78
2023/03/01 00:12:36;;;;;;;0.50;0.50;;;-1.70;99.90;;;;;;5059402;28;20708;-78
2023/03/01 00:15:04;;;;;;;0.50;0.40;;;-1.70;99.90;;;;;;5059923;28;20195;-77
2023/03/01 00:17:31;;;;;;;0.50;0.50;;;-1.70;99.90;;;;;;5061767;28;20223;-78
2023/03/01 00:19:58;;;;;;;1.35;1.25;;;-1.70;99.90;;;;;;5061365;28;20202;-79
2023/03/01 00:22:25;;;;;;;0.50;0.40;;;-1.60;99.90;;;;;;5060387;28;20245;-79
2023/03/01 00:24:53;;;;;;;0.50;0.45;;;-1.70;99.90;;;;;;5060293;28;20202;-78
2023/03/01 00:27:20;;;;;;;0.95;0.95;;;-1.70;99.90;;;;;;5060099;28;20198;-78
2023/03/01 00:29:47;;;;;;;0.50;0.50;;;-1.60;99.90;;;;;;5060415;28;20637;-79
2023/03/01 00:32:14;;;;;;;0.50;0.50;;;-1.60;99.90;;;;;;5059649;28;20219;-78
2023/03/01 00:34:40;;;;;;;0.90;0.90;;;-1.60;99.90;;;;;;5057465;28;20281;-78
2023/03/01 00:37:07;;;;;;;1.30;1.30;;;-1.70;99.90;;;;;;5058810;28;20219;-79
2023/03/01 00:39:34;;;;;;;0.60;0.60;;;-1.70;99.90;;;;;;5059610;28;20201;-80
2023/03/01 00:42:02;;;;;;;1.50;1.40;;;-1.70;99.90;;;;;;5059055;28;20457;-79
2023/03/01 00:44:29;;;;;;;0.50;0.50;;;-1.70;99.90;;;;;;5058937;28;20195;-79
2023/03/01 00:46:56;;;;;;;0.50;0.40;;;-1.80;99.90;;;;;;5057056;28;20189;-79
2023/03/01 00:49:24;;;;;;;0.50;0.50;;;-1.70;99.90;;;;;;5056132;28;20225;-79
2023/03/01 00:51:50;;;;;;;1.88;1.77;;;-1.70;99.90;;;;;;5056477;28;20195;-77
2023/03/01 00:54:18;;;;;;;0.50;0.50;;;-1.80;99.90;;;;;;5056845;28;20630;-78
2023/03/01 00:56:44;;;;;;;4.32;4.00;;;-1.80;99.90;;;;;;5049755;28;20202;-79
2023/03/01 00:59:13;;;;;;;0.85;0.80;;;-1.90;99.90;;;;;;5058517;28;20202;-77
2023/03/01 01:01:39;;;;;;;4.85;4.65;;;-1.90;99.90;;;;;;5058180;28;20270;-79
2023/03/01 01:04:08;;;;;;;1.33;1.25;;;-1.90;99.90;;;;;;5058757;28;20248;-79
2023/03/01 01:06:37;;;;;;;0.50;0.50;;;-2.00;99.90;;;;;;5059209;28;20193;-79
2023/03/01 01:09:06;;;;;;;0.50;0.50;;;-2.00;99.90;;;;;;5057196;28;20281;-78
2023/03/01 01:11:34;;;;;;;0.50;0.50;;;-2.00;99.90;;;;;;5057157;28;20194;-80
2023/03/01 01:14:01;;;;;;;3.05;2.85;;;-2.10;99.90;;;;;;5059150;28;20222;-79
2023/03/01 01:16:30;;;;;;;1.30;0.93;;;-2.10;99.90;;;;;;5059502;28;20287;-79
2023/03/01 01:18:58;;;;;;;0.50;0.50;;;-2.10;99.90;;;;;;5058958;28;20281;-79
2023/03/01 01:21:26;;;;;;;0.80;0.80;;;-2.10;99.90;;;;;;5059035;28;20229;-79
2023/03/01 01:23:53;;;;;;;0.50;0.50;;;-2.10;99.90;;;;;;5059663;28;20932;-79
2023/03/01 01:26:22;;;;;;;0.50;0.50;;;-2.10;99.90;;;;;;5059246;28;20259;-78
2023/03/01 01:28:49;;;;;;;0.50;0.50;;;-2.10;99.90;;;;;;5053095;28;20203;-78
2023/03/01 01:31:16;;;;;;;0.50;0.50;;;-2.10;99.90;;;;;;5061607;28;20193;-79
2023/03/01 01:33:45;;;;;;;0.50;0.40;;;-2.10;99.90;;;;;;5061046;28;20249;-79
2023/03/01 01:36:12;;;;;;;1.83;0.70;;;-2.20;99.90;;;;;;5060351;28;20231;-79
2023/03/01 01:38:42;;;;;;;0.50;0.40;;;-2.20;99.90;;;;;;5061410;28;20194;-78
2023/03/01 01:41:11;;;;;;;0.50;0.50;;;-2.20;99.90;;;;;;5060033;28;20281;-79
2023/03/01 01:43:40;;;;;;;0.50;0.43;;;-2.20;99.90;;;;;;5059677;28;20218;-78
2023/03/01 01:46:16;;;;;;;0.50;0.50;;;-2.20;99.90;;;;;;5059230;28;20200;-78
2023/03/01 01:48:49;;;;;;;0.50;0.50;;;-2.20;99.90;;;;;;5059674;28;20608;-79
2023/03/01 01:51:22;;;;;;;0.50;0.43;;;-2.20;99.90;;;;;;5059428;28;20240;-79
2023/03/01 01:53:53;;;;;;;0.50;0.50;;;-2.30;99.90;;;;;;5057650;28;20276;-78
2023/03/01 01:56:22;;;;;;;0.50;0.50;;;-2.30;99.90;;;;;;5059448;28;20241;-78
2023/03/01 01:58:49;;;;;;;0.50;0.50;;;-2.30;99.90;;;;;;5050708;28;20202;-78
2023/03/01 02:01:16;;;;;;;0.50;0.50;;;-2.30;99.90;;;;;;5057071;28;20226;-79
2023/03/01 02:03:47;;;;;;;0.50;0.50;;;-2.30;99.90;;;;;;5057470;28;20229;-78
2023/03/01 02:06:20;;;;;;;0.50;0.50;;;-2.30;99.90;;;;;;5059199;28;20215;-78
2023/03/01 02:08:49;;;;;;;0.50;0.45;;;-2.30;99.90;;;;;;5060561;28;20261;-80
2023/03/01 02:11:18;;;;;;;0.50;0.40;;;-2.40;99.90;;;;;;5059656;28;20765;-78
2023/03/01 02:13:46;;;;;;;0.50;0.40;;;-2.40;99.90;;;;;;5061602;28;20278;-78
2023/03/01 02:16:15;;;;;;;0.60;0.60;;;-2.40;99.90;;;;;;5063271;28;20209;-78
2023/03/01 02:18:43;;;;;;;0.50;0.40;;;-2.40;99.90;;;;;;5064140;28;20281;-78
2023/03/01 02:21:22;;;;;;;0.50;0.50;;;-2.40;99.90;;;;;;5063874;28;20277;-79
2023/03/01 02:23:49;;;;;;;0.50;0.50;;;-2.40;99.90;;;;;;5062710;28;20272;-78
2023/03/01 02:26:24;;;;;;;0.50;0.50;;;-2.40;99.90;;;;;;5061308;28;20226;-78
2023/03/01 02:28:52;;;;;;;0.85;0.73;;;-2.50;99.90;;;;;;5055791;28;20233;-78
2023/03/01 02:34:07;;;;;;;0.50;0.40;;;-2.50;99.90;;;;;;5061317;28;20221;-78
2023/03/01 02:36:37;;;;;;;0.50;0.50;;;-2.40;99.90;;;;;;5062565;28;20217;-79
2023/03/01 02:39:06;;;;;;;0.70;0.70;;;-2.40;99.90;;;;;;5063976;28;20289;-79
2023/03/01 02:41:36;;;;;;;0.50;0.50;;;-2.50;99.90;;;;;;5062873;28;20190;-78
2023/03/01 02:44:05;;;;;;;0.75;0.75;;;-2.40;99.90;;;;;;5062297;28;20228;-78
2023/03/01 02:46:32;;;;;;;0.50;0.50;;;-2.30;99.90;;;;;;5062889;28;20222;-79
2023/03/01 02:49:00;;;;;;;1.08;0.88;;;-2.40;99.90;;;;;;5062016;28;20231;-79
2023/03/01 02:51:43;;;;;;;0.50;0.50;;;-2.30;99.90;;;;;;5062545;28;20241;-77
2023/03/01 02:54:19;;;;;;;0.50;0.50;;;-2.40;99.90;;;;;;5061208;28;20205;-79
2023/03/01 02:56:48;;;;;;;0.50;0.47;;;-2.50;99.90;;;;;;5062372;28;20278;-78
2023/03/01 02:59:18;;;;;;;0.50;0.50;;;-2.40;99.90;;;;;;5062771;28;20202;-79
2023/03/01 03:01:46;;;;;;;0.50;0.40;;;-2.50;99.90;;;;;;5062366;28;20192;-78
2023/03/01 03:04:17;;;;;;;0.50;0.50;;;-2.60;99.90;;;;;;5062003;28;20199;-79
2023/03/01 03:06:45;;;;;;;0.57;0.57;;;-2.60;99.90;;;;;;5062306;28;20195;-79
2023/03/01 03:09:12;;;;;;;0.50;0.50;;;-2.60;99.90;;;;;;5062428;28;20206;-78
2023/03/01 03:11:40;;;;;;;0.50;0.50;;;-2.60;99.90;;;;;;5061638;28;20276;-78
2023/03/01 03:14:12;;;;;;;1.67;1.58;;;-2.60;99.90;;;;;;5060724;28;20222;-78
2023/03/01 03:16:43;;;;;;;0.50;0.40;;;-2.60;99.90;;;;;;5061091;28;20674;-79
2023/03/01 03:19:10;;;;;;;0.50;0.50;;;-2.50;99.90;;;;;;5062047;28;20617;-79
2023/03/01 03:21:37;;;;;;;0.50;0.47;;;-2.50;99.90;;;;;;5060656;28;20290;-77
2023/03/01 03:24:05;;;;;;;0.50;0.50;;;-2.50;99.90;;;;;;5060087;28;20240;-78
2023/03/01 03:26:32;;;;;;;5.80;5.28;;;-2.60;99.90;;;;;;5060721;28;20224;-78
2023/03/01 03:28:59;;;;;;;0.50;0.50;;;-2.60;99.90;;;;;;5059232;28;20703;-78
2023/03/01 03:31:26;;;;;;;0.50;0.50;;;-2.60;99.90;;;;;;5059777;28;20193;-80
2023/03/01 03:33:54;;;;;;;0.50;0.40;;;-2.60;99.90;;;;;;5059528;28;20207;-79
2023/03/01 03:36:23;;;;;;;1.33;1.33;;;-2.60;99.90;;;;;;5058647;28;20724;-79
2023/03/01 03:38:50;;;;;;;0.50;0.50;;;-2.50;99.90;;;;;;5059592;28;20228;-78
2023/03/01 03:41:18;;;;;;;0.50;0.50;;;-2.50;99.90;;;;;;5059361;28;20280;-78
2023/03/01 03:43:45;;;;;;;0.50;0.40;;;-2.60;99.90;;;;;;5059597;28;20638;-79
2023/03/01 03:46:12;;;;;;;1.20;1.10;;;-2.60;99.90;;;;;;5058758;28;20733;-78
2023/03/01 03:48:41;;;;;;;0.50;0.50;;;-2.70;99.90;;;;;;5058886;28;20284;-78
2023/03/01 03:51:11;;;;;;;0.50;0.47;;;-2.70;99.90;;;;;;5059161;28;20191;-79
2023/03/01 03:53:38;;;;;;;0.50;0.50;;;-2.70;99.90;;;;;;5058900;28;20212;-78
2023/03/01 03:56:06;;;;;;;3.00;2.88;;;-2.70;99.90;;;;;;5058171;28;20227;-79
2023/03/01 03:58:33;;;;;;;0.50;0.40;;;-2.80;99.90;;;;;;5060512;28;20250;-79
2023/03/01 04:01:01;;;;;;;1.98;1.88;;;-2.70;99.90;;;;;;5060854;28;20202;-77
2023/03/01 04:03:30;;;;;;;1.70;1.60;;;-2.80;99.90;;;;;;5061679;28;20246;-79
2023/03/01 04:05:58;;;;;;;0.90;0.90;;;-2.80;99.90;;;;;;5067040;28;20333;-81
2023/03/01 04:08:27;;;;;;;0.50;0.50;;;-2.80;99.90;;;;;;5070347;28;20226;-79
2023/03/01 04:10:58;;;;;;;2.88;2.78;;;-2.90;99.90;;;;;;5070665;28;20187;-79
2023/03/01 04:13:25;;;;;;;2.42;1.50;;;-2.80;99.90;;;;;;5068705;28;20218;-78
2023/03/01 04:15:53;;;;;;;1.27;1.17;;;-2.90;99.90;;;;;;5057921;28;20241;-80
2023/03/01 04:18:22;;;;;;;0.50;0.40;;;-2.90;99.90;;;;;;5057516;28;20212;-79
2023/03/01 04:20:51;;;;;;;0.50;0.50;;;-2.90;99.90;;;;;;5059896;28;20202;-78
2023/03/01 04:23:20;;;;;;;0.50;0.50;;;-2.90;99.90;;;;;;5059585;28;20211;-79
2023/03/01 04:25:53;;;;;;;0.50;0.50;;;-3.00;99.90;;;;;;5058481;28;20578;-78
2023/03/01 04:28:21;;;;;;;0.50;0.50;;;-3.00;99.90;;;;;;5057148;28;20182;-76
2023/03/01 04:30:48;;;;;;;36.03;24.48;;;-3.10;99.90;;;;;;5056765;28;20205;-79
2023/03/01 04:33:14;;;;;;;0.50;0.40;;;-3.10;99.90;;;;;;5058189;28;20300;-78
2023/03/01 04:35:41;;;;;;;0.50;0.40;;;-3.20;99.90;;;;;;5055929;28;20281;-79
2023/03/01 04:38:08;;;;;;;0.50;0.50;;;-3.20;99.90;;;;;;5058728;28;20211;-78
2023/03/01 04:40:35;;;;;;;0.50;0.50;;;-3.30;99.90;;;;;;5060192;28;20187;-79
2023/03/01 04:43:04;;;;;;;1.25;1.15;;;-3.30;99.90;;;;;;5059979;28;20304;-79
2023/03/01 04:45:34;;;;;;;0.50;0.40;;;-3.20;99.90;;;;;;5059269;28;20250;-79
2023/03/01 04:48:01;;;;;;;0.50;0.40;;;-3.20;99.90;;;;;;5058929;28;20199;-78
2023/03/01 04:50:28;;;;;;;0.50;0.50;;;-3.20;99.90;;;;;;5058786;28;20196;-80
2023/03/01 04:52:58;;;;;;;0.50;0.50;;;-3.10;99.90;;;;;;5058883;28;20249;-78
2023/03/01 04:55:25;;;;;;;0.50;0.50;;;-3.10;99.90;;;;;;5058132;28;20189;-79
2023/03/01 04:57:53;;;;;;;0.50;0.40;;;-3.20;99.90;;;;;;5061304;28;20247;-80
2023/03/01 05:00:23;;;;;;;0.50;0.50;;;-3.30;99.90;;;;;;5062042;28;20193;-78
2023/03/01 05:02:53;;;;;;;0.50;0.40;;;-3.30;99.90;;;;;;5060722;28;20563;-78
2023/03/01 05:05:25;;;;;;;0.50;0.50;;;-3.30;99.90;;;;;;5059954;28;20206;-79
2023/03/01 05:07:56;;;;;;;1.02;1.02;;;-3.20;99.90;;;;;;5059258;28;20243;-79
2023/03/01 05:10:24;;;;;;;81.20;12.60;;;-3.20;99.90;;;;;;5060993;28;20250;-79
2023/03/01 05:12:52;;;;;;;0.50;0.50;;;-3.20;99.90;;;;;;5061451;28;20223;-79
2023/03/01 05:15:21;;;;;;;0.50;0.50;;;-3.20;99.90;;;;;;5060495;28;20270;-80
2023/03/01 05:17:50;;;;;;;0.50;0.50;;;-3.20;99.90;;;;;;5059852;28;20260;-79
2023/03/01 05:20:17;;;;;;;0.50;0.50;;;-3.20;99.90;;;;;;5059735;28;20221;-79
2023/03/01 05:22:44;;;;;;;0.50;0.40;;;-3.20;99.90;;;;;;5060372;28;20210;-79
2023/03/01 05:25:13;;;;;;;0.50;0.47;;;-3.20;99.90;;;;;;5058910;28;20233;-78
2023/03/01 05:27:40;;;;;;;0.50;0.50;;;-3.30;99.90;;;;;;5055180;28;20276;-78
2023/03/01 05:30:14;;;;;;;0.50;0.50;;;-3.30;99.90;;;;;;5058872;28;20565;-77
2023/03/01 05:32:45;;;;;;;0.50;0.50;;;-3.30;99.90;;;;;;5058380;28;20577;-78
2023/03/01 05:35:16;;;;;;;2.30;2.25;;;-3.30;99.90;;;;;;5058206;28;20277;-79
2023/03/01 05:37:44;;;;;;;1.17;1.15;;;-3.20;99.90;;;;;;5056008;28;20249;-78
2023/03/01 05:40:15;;;;;;;0.50;0.50;;;-3.20;99.90;;;;;;5057444;28;20276;-77
2023/03/01 05:42:46;;;;;;;0.50;0.50;;;-3.30;99.90;;;;;;5055920;28;20206;-77
2023/03/01 05:45:14;;;;;;;0.50;0.50;;;-3.30;99.90;;;;;;5055696;28;20190;-77
2023/03/01 05:47:43;;;;;;;0.95;0.95;;;-3.20;99.90;;;;;;5055467;28;20191;-76
2023/03/01 05:50:18;;;;;;;2.58;1.60;;;-3.20;99.90;;;;;;5061698;28;20190;-77
2023/03/01 05:52:46;;;;;;;0.95;0.75;;;-3.20;99.90;;;;;;5061761;28;20767;-77
2023/03/01 05:55:13;;;;;;;0.50;0.40;;;-3.10;99.90;;;;;;5061605;28;20197;-77
2023/03/01 05:57:40;;;;;;;0.52;0.52;;;-3.10;99.90;;;;;;5061581;28;20220;-76
2023/03/01 06:00:08;;;;;;;0.50;0.50;;;-3.10;99.90;;;;;;5061606;28;20188;-77
2023/03/01 06:02:35;;;;;;;0.50;0.50;;;-3.10;99.90;;;;;;5061700;28;20644;-77
2023/03/01 06:05:02;;;;;;;0.50;0.50;;;-3.10;99.90;;;;;;5063741;28;20202;-77
2023/03/01 06:07:30;;;;;;;0.82;0.82;;;-3.00;99.90;;;;;;5061765;28;20193;-77
2023/03/01 06:09:57;;;;;;;0.50;0.50;;;-3.10;99.90;;;;;;5061474;28;20205;-76
2023/03/01 06:12:24;;;;;;;0.50;0.50;;;-3.00;99.90;;;;;;5062833;28;20279;-76
2023/03/01 06:14:51;;;;;;;2.45;2.35;;;-3.10;99.90;;;;;;5065881;28;20353;-77
2023/03/01 06:17:18;;;;;;;0.50;0.50;;;-3.10;99.90;;;;;;5062422;28;20259;-79
2023/03/01 06:19:45;;;;;;;0.50;0.50;;;-3.10;99.90;;;;;;5064849;28;20642;-79
2023/03/01 06:22:12;;;;;;;0.50;0.50;;;-3.20;99.90;;;;;;5060680;28;20765;-78
2023/03/01 06:24:40;;;;;;;0.50;0.47;;;-3.20;99.90;;;;;;5054801;28;20204;-81
2023/03/01 06:27:07;;;;;;;0.50;0.40;;;-3.20;99.90;;;;;;5055048;28;20277;-79
2023/03/01 06:29:33;;;;;;;1.67;1.10;;;-3.20;99.90;;;;;;5057347;28;20201;-79
2023/03/01 06:32:00;;;;;;;0.50;0.50;;;-3.10;99.90;;;;;;5056071;28;20722;-80
2023/03/01 06:34:27;;;;;;;0.50;0.50;;;-3.00;99.90;;;;;;5055841;28;20191;-81
2023/03/01 06:36:54;;;;;;;1.50;1.35;;;-3.00;99.90;;;;;;5058242;28;20206;-79
2023/03/01 06:39:21;;;;;;;0.68;0.68;;;-2.90;99.90;;;;;;5057629;28;20241;-81
2023/03/01 06:41:49;;;;;;;1.48;1.08;;;-2.90;99.90;;;;;;5061449;28;20198;-79
2023/03/01 06:44:16;;;;;;;0.50;0.50;;;-2.80;99.90;;;;;;5060403;28;20215;-78
2023/03/01 06:46:43;;;;;;;7.13;4.10;;;-2.70;99.90;;;;;;5057635;28;20197;-77
2023/03/01 06:49:10;;;;;;;0.52;0.52;;;-2.70;99.90;;;;;;5054295;28;20570;-78
2023/03/01 06:51:37;;;;;;;0.50;0.50;;;-2.70;99.90;;;;;;5050490;28;20270;-79
2023/03/01 06:54:04;;;;;;;0.70;0.70;;;-2.60;99.90;;;;;;5054815;28;20210;-80
2023/03/01 06:56:32;;;;;;;0.82;0.82;;;-2.50;99.90;;;;;;5055218;28;20187;-80
2023/03/01 06:59:00;;;;;;;2.13;0.75;;;-2.40;99.90;;;;;;5055630;28;20223;-79
2023/03/01 07:01:27;;;;;;;0.50;0.50;;;-2.30;99.90;;;;;;5056547;28;20284;-80
2023/03/01 07:03:54;;;;;;;0.50;0.50;;;-2.20;99.90;;;;;;5057162;28;20215;-80
2023/03/01 07:06:20;;;;;;;0.60;0.60;;;-2.10;99.90;;;;;;5056459;28;20281;-82
2023/03/01 07:08:47;;;;;;;2.97;2.03;;;-2.00;99.90;;;;;;5056646;28;20214;-80
2023/03/01 07:11:14;;;;;;;0.77;0.77;;;-1.90;99.90;;;;;;5049697;28;20201;-79
2023/03/01 07:13:41;;;;;;;0.50;0.50;;;-1.70;99.90;;;;;;5055881;28;20701;-77
2023/03/01 07:16:10;;;;;;;1.30;0.95;;;-1.60;99.90;;;;;;5056636;28;20202;-79
2023/03/01 07:18:36;;;;;;;1.55;1.45;;;-1.50;99.90;;;;;;5055989;28;20243;-79
2023/03/01 07:21:07;;;;;;;1.92;1.83;;;-1.30;99.90;;;;;;5057110;28;20274;-80
2023/03/01 07:23:34;;;;;;;0.60;0.60;;;-1.20;99.90;;;;;;5057430;28;20301;-80
2023/03/01 07:26:01;;;;;;;1.90;1.80;;;-1.10;99.90;;;;;;5057408;28;20201;-79
2023/03/01 07:28:28;;;;;;;0.50;0.40;;;-1.10;99.90;;;;;;5056188;28;20189;-80
2023/03/01 07:30:56;;;;;;;3.55;2.58;;;-0.90;99.90;;;;;;5056799;28;20277;-79
2023/03/01 07:33:24;;;;;;;0.70;0.70;;;-0.90;99.90;;;;;;5055991;28;20299;-79
2023/03/01 07:35:58;;;;;;;0.50;0.50;;;-0.90;99.90;;;;;;5056115;28;20198;-76
2023/03/01 07:38:25;;;;;;;0.60;0.60;;;-0.90;99.90;;;;;;5057083;28;20219;-80
2023/03/01 07:40:52;;;;;;;0.60;0.60;;;-0.60;99.90;;;;;;5057629;28;20229;-79
2023/03/01 07:43:20;;;;;;;4.43;1.67;;;-0.10;99.90;;;;;;5054687;28;20300;-80
2023/03/01 07:45:47;;;;;;;9.80;2.05;;;0.30;99.90;;;;;;5058040;28;20228;-80
2023/03/01 07:48:14;;;;;;;1.15;1.05;;;0.90;99.90;;;;;;5057297;28;20668;-81
2023/03/01 07:50:42;;;;;;;0.50;0.50;;;1.60;99.90;;;;;;5056833;28;20200;-79
2023/03/01 07:53:09;;;;;;;0.70;0.70;;;2.40;99.90;;;;;;5047964;28;20297;-80
2023/03/01 07:55:36;;;;;;;0.50;0.50;;;3.00;99.90;;;;;;5055759;28;20197;-80
2023/03/01 07:58:03;;;;;;;1.92;1.83;;;3.50;99.90;;;;;;5057623;28;20301;-80
2023/03/01 08:00:30;;;;;;;0.70;0.70;;;4.10;99.90;;;;;;5056755;28;20689;-83
2023/03/01 08:03:00;;;;;;;1.98;1.88;;;5.20;99.90;;;;;;5060230;28;20258;-82
2023/03/01 08:05:26;;;;;;;0.52;0.40;;;5.60;99.90;;;;;;5056092;28;20193;-79
2023/03/01 08:07:55;;;;;;;1.45;0.65;;;5.50;99.90;;;;;;5055510;28;20195;-80
2023/03/01 08:10:22;;;;;;;1.30;1.20;;;5.80;99.90;;;;;;5055524;28;20191;-81
2023/03/01 08:12:48;;;;;;;1.25;1.15;;;6.20;99.90;;;;;;5056247;28;20294;-79
2023/03/01 08:15:15;;;;;;;4.75;1.33;;;7.00;96.20;;;;;;5055760;28;20197;-80
2023/03/01 08:17:42;;;;;;;0.65;0.65;;;8.00;92.60;;;;;;5055399;28;20205;-80
2023/03/01 08:20:12;;;;;;;0.88;0.60;;;8.90;88.70;;;;;;5056263;28;20237;-79
2023/03/01 08:22:39;;;;;;;0.68;0.68;;;9.70;83.10;;;;;;5055337;28;20253;-81
2023/03/01 08:25:07;;;;;;;1.13;1.13;;;10.70;75.10;;;;;;5065360;28;20226;-80
2023/03/01 08:27:34;;;;;;;1.00;0.60;;;11.30;68.40;;;;;;5065701;28;20190;-81
2023/03/01 08:30:01;;;;;;;0.60;0.50;;;11.90;66.40;;;;;;5057796;28;20266;-80
2023/03/01 08:32:28;;;;;;;1.58;0.82;;;12.50;63.90;;;;;;5056441;28;20605;-82
2023/03/01 08:34:55;;;;;;;0.70;0.70;;;13.30;60.60;;;;;;5058190;28;20610;-80
2023/03/01 08:37:22;;;;;;;0.50;0.50;;;13.70;58.10;;;;;;5060521;28;20187;-80
2023/03/01 08:39:49;;;;;;;1.50;1.50;;;14.40;58.40;;;;;;5062071;28;20473;-78
2023/03/01 08:42:17;;;;;;;1.07;1.07;;;15.50;57.00;;;;;;5060284;28;20492;-79
2023/03/01 08:44:44;;;;;;;0.50;0.30;;;16.90;56.20;;;;;;5061829;28;20457;-77
2023/03/01 08:47:11;;;;;;;6.83;3.43;;;17.80;52.30;;;;;;5060635;28;20445;-79
2023/03/01 08:49:38;;;;;;;2.30;0.87;;;17.90;49.90;;;;;;5060579;28;20468;-79
2023/03/01 08:52:05;;;;;;;1.27;1.23;;;18.40;48.90;;;;;;5060161;28;20448;-81
2023/03/01 08:54:32;;;;;;;0.50;0.40;;;18.70;48.00;;;;;;5061363;28;20448;-80
2023/03/01 08:57:01;;;;;;;0.93;0.93;;;19.60;48.70;;;;;;5061734;28;20453;-81
2023/03/01 08:59:30;;;;;;;0.50;0.40;;;19.90;46.60;;;;;;5062409;28;20464;-80
2023/03/01 09:01:57;;;;;;;0.50;0.43;;;20.30;46.00;;;;;;5061101;28;20460;-79
2023/03/01 09:04:24;;;;;;;0.70;0.70;;;21.10;46.10;;;;;;5061789;28;20457;-80
2023/03/01 09:06:51;;;;;;;0.80;0.70;;;21.40;44.30;;;;;;5066324;28;20432;-80
2023/03/01 09:09:18;;;;;;;0.90;0.90;;;21.40;42.80;;;;;;5063826;28;20505;-78
2023/03/01 09:11:46;;;;;;;0.50;0.40;;;21.00;42.40;;;;;;5062089;28;20475;-79
2023/03/01 09:14:13;;;;;;;4.10;2.40;;;20.90;43.30;;;;;;5057096;28;20909;-80
2023/03/01 09:16:41;;;;;;;0.50;0.30;;;21.20;42.60;;;;;;5056636;28;20520;-80
2023/03/01 09:19:08;;;;;;;1.30;0.73;;;20.70;41.50;;;;;;5055563;28;20938;-79
2023/03/01 09:21:35;;;;;;;0.93;0.93;;;20.60;42.70;;;;;;5057069;28;20441;-82
2023/03/01 09:24:02;;;;;;;0.50;0.30;;;20.30;43.10;;;;;;5059962;28;20484;-80
2023/03/01 09:26:29;;;;;;;2.20;1.90;;;20.80;43.60;;;;;;5059820;28;20445;-79
2023/03/01 09:28:56;;;;;;;1.47;1.27;;;21.30;42.40;;;;;;5059626;28;20501;-79
2023/03/01 09:31:25;;;;;;;0.50;0.40;;;19.80;41.10;;;;;;5060228;28;20439;-81
2023/03/01 09:33:54;;;;;;;0.50;0.50;;;20.30;43.50;;;;;;5059407;28;20461;-80
2023/03/01 09:36:23;;;;;;;1.60;1.50;;;20.60;41.60;;;;;;5060807;28;20919;-79
2023/03/01 09:38:52;;;;;;;0.70;0.70;;;21.00;42.20;;;;;;5058764;28;20531;-80
2023/03/01 09:41:39;;;;;;;0.50;0.40;;;21.50;42.00;;;;;;5059509;28;20453;-78
2023/03/01 09:44:16;;;;;;;0.50;0.50;;;21.40;41.40;;;;;;5059463;28;20461;-81
2023/03/01 09:46:45;;;;;;;0.60;0.40;;;21.70;40.90;;;;;;5060017;28;20476;-80
2023/03/01 09:49:19;;;;;;;0.50;0.43;;;21.40;40.30;;;;;;5059865;28;20437;-81
2023/03/01 09:51:56;;;;;;;1.93;1.27;;;20.50;41.00;;;;;;5060386;28;20444;-80
2023/03/01 09:54:23;;;;;;;0.60;0.50;;;19.20;40.20;;;;;;5058859;28;20924;-80
2023/03/01 09:57:16;;;;;;;0.50;0.30;;;18.60;43.50;;;;;;5059116;28;20980;-80
2023/03/01 09:59:57;;;;;;;0.60;0.50;;;17.90;41.90;;;;;;5055153;28;21031;-79
2023/03/01 10:02:38;;;;;;;0.60;0.43;;;16.50;42.80;;;;;;5059606;28;20484;-80
2023/03/01 10:05:20;;;;;;;0.60;0.50;;;15.10;44.50;;;;;;5057466;28;20443;-80
2023/03/01 10:07:58;;;;;;;0.97;0.97;;;14.60;46.00;;;;;;5059220;28;20520;-80
2023/03/01 10:10:32;;;;;;;0.67;0.67;;;14.30;46.40;;;;;;5059149;28;20440;-81
2023/03/01 10:13:02;;;;;;;1.23;1.20;;;14.20;47.40;;;;;;5058330;28;20785;-80
2023/03/01 10:15:36;;;;;;;2.87;2.63;;;13.30;46.60;;;;;;5057578;28;20448;-79
2023/03/01 10:18:07;;;;;;;1.07;1.07;;;12.50;47.70;;;;;;5059178;28;20441;-80
2023/03/01 10:20:43;;;;;;;0.80;0.80;;;12.20;48.70;;;;;;5058306;28;20480;-82
2023/03/01 10:23:11;;;;;;;5.83;2.03;;;11.90;49.30;;;;;;5059691;28;20559;-82
2023/03/01 10:26:03;;;;;;;1.10;0.90;;;12.00;49.60;;;;;;5060037;28;20521;-81
2023/03/01 10:28:38;;;;;;;3.35;3.15;;;12.10;49.00;;;;;;5059280;28;20935;-81
2023/03/01 10:31:06;;;;;;;0.68;0.68;;;11.40;48.60;;;;;;5063724;28;20208;-80
2023/03/01 10:33:36;;;;;;;1.20;1.08;;;10.80;49.10;;;;;;5061113;28;20214;-79
2023/03/01 10:36:05;;;;;;;2.63;1.23;;;10.80;50.60;;;;;;5062332;28;20195;-82
2023/03/01 10:38:48;;;;;;;0.50;0.40;;;10.90;50.10;;;;;;5069995;28;20194;-80
2023/03/01 10:41:14;;;;;;;1.40;0.90;;;10.80;51.40;;;;;;5065599;28;20195;-80
2023/03/01 10:43:47;;;;;;;3.08;1.70;;;11.00;50.70;;;;;;5058942;28;20712;-80
2023/03/01 10:46:33;;;;;;;1.55;1.45;;;11.00;49.90;;;;;;5058620;28;20198;-82
2023/03/01 10:49:08;;;;;;;0.60;0.50;;;11.30;49.50;;;;;;5059052;28;20191;-81
2023/03/01 10:51:42;;;;;;;1.80;1.05;;;11.30;49.30;;;;;;5059729;28;20187;-79
2023/03/01 10:54:18;;;;;;;0.60;0.60;;;11.30;48.90;;;;;;5059024;28;20219;-78
2023/03/01 10:56:51;;;;;;;1.50;1.40;;;11.40;49.10;;;;;;5058496;28;20285;-78
2023/03/01 10:59:26;;;;;;;0.50;0.40;;;11.60;49.80;;;;;;5058871;28;20820;-81
2023/03/01 11:02:13;;;;;;;4.72;1.17;;;12.30;48.90;;;;;;5058342;28;20519;-78
2023/03/01 11:04:42;;;;;;;0.50;0.40;;;12.60;48.10;;;;;;5053389;28;20222;-80
2023/03/01 11:07:10;;;;;;;0.50;0.40;;;13.10;48.10;;;;;;5056835;28;20969;-78
2023/03/01 11:09:38;;;;;;;0.60;0.43;;;13.70;47.50;;;;;;5057471;28;20441;-79
2023/03/01 11:12:14;;;;;;;0.80;0.60;;;14.30;46.30;;;;;;5057018;28;20469;-79
2023/03/01 11:14:48;;;;;;;0.60;0.50;;;14.90;45.70;;;;;;5057922;28;20519;-79
2023/03/01 11:17:22;;;;;;;0.70;0.50;;;14.90;45.20;;;;;;5056825;28;20464;-81
2023/03/01 11:20:02;;;;;;;1.27;0.70;;;15.20;45.40;;;;;;5056592;28;21065;-79
2023/03/01 11:22:33;;;;;;;1.43;1.33;;;15.80;46.50;;;;;;5054549;28;20472;-82
2023/03/01 11:25:01;;;;;;;0.50;0.30;;;16.00;45.30;;;;;;5054191;28;20451;-78
2023/03/01 11:27:32;;;;;;;0.50;0.50;;;15.90;45.20;;;;;;5053478;28;20467;-80
2023/03/01 11:30:03;;;;;;;0.50;0.40;;;16.40;44.40;;;;;;5058057;28;20524;-79
2023/03/01 11:32:37;;;;;;;0.50;0.30;;;16.40;43.70;;;;;;5056380;28;20453;-82
2023/03/01 11:35:10;;;;;;;0.50;0.50;;;16.40;43.70;;;;;;5057765;28;20531;-79
2023/03/01 11:37:45;;;;;;;0.53;0.47;;;16.80;43.80;;;;;;5055426;28;20784;-78
2023/03/01 11:40:16;;;;;;;0.97;0.60;;;16.70;43.60;;;;;;5056931;28;20988;-81
2023/03/01 11:43:02;;;;;;;0.97;0.60;;;17.00;44.00;;;;;;5059264;28;20454;-79
2023/03/01 11:45:39;;;;;;;0.50;0.30;;;16.90;42.50;;;;;;5060930;28;20463;-80
2023/03/01 11:48:28;;;;;;;4.67;1.03;;;16.90;44.00;;;;;;5060880;28;20435;-78
2023/03/01 11:50:58;;;;;;;0.50;0.40;;;16.80;43.30;;;;;;5063545;28;20436;-80
2023/03/01 11:53:37;;;;;;;0.50;0.40;;;17.50;44.80;;;;;;5059444;28;20481;-80
2023/03/01 11:56:19;;;;;;;0.90;0.60;;;17.90;44.00;;;;;;5061495;28;20464;-80
2023/03/01 11:59:03;;;;;;;0.50;0.30;;;17.70;41.90;;;;;;5062856;28;20441;-79
2023/03/01 12:01:44;;;;;;;3.80;0.70;;;17.50;42.60;;;;;;5055181;28;20467;-78
2023/03/01 12:04:50;;;;;;;0.50;0.30;;;17.60;42.00;;;;;;5060229;28;20468;-79
2023/03/01 12:07:21;;;;;;;0.50;0.30;;;17.30;42.30;;;;;;5056142;28;20528;-78
2023/03/01 12:10:14;;;;;;;0.80;0.70;;;16.80;42.20;;;;;;5061938;28;20444;-78
2023/03/01 12:12:55;;;;;;;0.60;0.40;;;16.80;42.80;;;;;;5054020;28;20477;-79
2023/03/01 12:15:50;;;;;;;0.50;0.30;;;16.70;42.90;;;;;;5059831;28;20544;-79
2023/03/01 12:18:46;;;;;;;0.53;0.40;;;17.30;43.20;;;;;;5062043;28;20442;-79
2023/03/01 12:21:29;;;;;;;1.10;1.00;;;17.00;42.50;;;;;;5059976;28;20476;-79
2023/03/01 12:24:30;;;;;;;0.53;0.50;;;16.20;42.40;;;;;;5062091;28;20464;-79
2023/03/01 12:27:14;;;;;;;0.63;0.63;;;16.30;43.70;;;;;;5036236;28;20448;-79
2023/03/01 12:29:48;;;;;;;0.50;0.47;;;16.30;43.50;;;;;;5061195;28;20891;-81
2023/03/01 12:32:41;;;;;;;1.10;1.00;;;16.20;42.80;;;;;;5059951;28;20863;-80
2023/03/01 12:35:28;;;;;;;2.00;1.57;;;16.20;43.70;;;;;;5062064;28;20436;-79
2023/03/01 12:38:03;;;;;;;2.27;2.10;;;15.90;43.00;;;;;;5051220;28;20504;-78
2023/03/01 12:41:02;;;;;;;0.67;0.60;;;15.10;43.50;;;;;;5055304;28;20827;-79
2023/03/01 12:43:44;;;;;;;0.50;0.30;;;14.40;44.50;;;;;;5061920;28;20867;-79
2023/03/01 12:46:29;;;;;;;0.50;0.40;;;14.50;45.50;;;;;;5061292;28;20517;-79
2023/03/01 12:49:08;;;;;;;2.50;1.13;;;14.20;44.90;;;;;;5059791;28;20437;-80
2023/03/01 12:51:38;;;;;;;0.70;0.40;;;14.20;45.40;;;;;;5053614;28;20417;-80
2023/03/01 12:54:15;;;;;;;0.80;0.80;;;14.90;45.10;;;;;;5067511;28;20454;-79
2023/03/01 12:56:44;;;;;;;1.13;0.93;;;15.00;44.00;;;;;;5069755;28;20436;-82
2023/03/01 12:59:20;;;;;;;0.50;0.37;;;15.00;43.80;;;;;;5062297;28;20437;-79
2023/03/01 13:01:55;;;;;;;0.80;0.80;;;14.90;44.50;;;;;;5057049;28;20457;-79
2023/03/01 13:04:54;;;;;;;1.33;1.07;;;14.50;45.10;;;;;;5059921;28;20524;-79
2023/03/01 13:07:29;;;;;;;1.43;0.83;;;14.20;45.20;;;;;;5059088;28;20988;-80